Ceahlau Toaca, Romania
Current Conditions -  °F | °C
As of 3:30 PM on Monday 22 Dec 2014 (Local Time) from LRBC Reporting Station
Few Clouds Few Clouds  
Wind Chill: 39°   Ceiling: Unl
Heat Index: 45°   Visibility: 6mi
Dew Point: 32°   Wind: 12mph
Humidity: 61%   Direction: 240°WSW
Pressure: 30"   Gusts: NA
Location:  46.93°N, 25.92°E
Report Text: LRBC 221230Z 24010KT 9999 FEW060 07/M00 Q1016 R16/15//95
Loading
Personal Weather Stations






























Interactive Weather Map New forecast layout! Learn more

10-Day Weather Forecast

Advertisements
Track Severe Weather on mobile